Columbia, Illinois
Current Conditions -  °F | °C
As of 11:53 AM on Friday 21 Nov 2014 (Local Time) from KCPS Reporting Station
Clear Clear  
Wind Chill: 32°   Ceiling: Unl
Heat Index: 40°   Visibility: 10mi
Dew Point: 20°   Wind: 14mph
Humidity: 45%   Direction: 140°SE
Pressure: 30.39"   Gusts: NA
Location:  38.44°N, 90.2°W
Report Text: KCPS 211753Z 14012KT 10SM CLR 04/M07 A3039 RMK AO2 SLP296 T00441067 10044 21050 58018
Loading
Personal Weather Stations






























Interactive Weather Map New forecast layout! Learn more

10-Day Weather Forecast

Advertisements
Track Severe Weather on mobile